Houthalen, Belgium
Current Conditions -  °F | °C
As of 7:25 AM on Sunday 26 Oct 2014 (Local Time) from EBBL Reporting Station
Broken Clouds Broken Clouds  
Wind Chill: 52°   Ceiling: 3900
Heat Index: 52°   Visibility: 6mi
Dew Point: 48°   Wind: 5mph
Humidity: 88%   Direction: 200°SSW
Pressure: 30.24"   Gusts: NA
Location:  51.03°N, 5.37°E
Report Text: EBBL 260525Z AUTO 20004KT 9999 BKN039/// 11/09 Q1024 BLU
Loading
Personal Weather Stations






























Interactive Weather Map
Tropical Storm Tracking
New forecast layout! Learn more

10-Day Weather Forecast

Advertisements
Track Severe Weather on mobile